createdAt,value
2022-11-23T00:02:20.644Z,1.40
2022-11-23T00:04:47.047Z,1.40
2022-11-23T00:07:13.471Z,1.25
2022-11-23T00:09:39.923Z,1.60
2022-11-23T00:12:06.304Z,1.50
2022-11-23T00:14:32.689Z,1.38
2022-11-23T00:16:59.060Z,1.40
2022-11-23T00:19:25.467Z,1.58
2022-11-23T00:21:51.859Z,1.20
2022-11-23T00:24:18.286Z,1.77
2022-11-23T00:26:44.687Z,1.13
2022-11-23T00:29:11.084Z,1.13
2022-11-23T00:31:37.467Z,1.30
2022-11-23T00:34:03.870Z,1.20
2022-11-23T00:36:30.235Z,0.93
2022-11-23T00:38:56.636Z,1.05
2022-11-23T00:41:23.025Z,0.98
2022-11-23T00:43:49.399Z,0.80
2022-11-23T00:46:15.791Z,1.10
2022-11-23T00:48:42.195Z,1.10
2022-11-23T00:51:08.614Z,1.60
2022-11-23T00:53:35.003Z,0.82
2022-11-23T00:56:01.395Z,1.15
2022-11-23T00:58:27.786Z,1.17
2022-11-23T01:00:54.186Z,1.17
2022-11-23T01:03:20.564Z,0.80
2022-11-23T01:05:46.945Z,1.15
2022-11-23T01:08:13.320Z,1.20
2022-11-23T01:10:39.721Z,1.20
2022-11-23T01:13:06.087Z,1.10
2022-11-23T01:15:32.485Z,1.10
2022-11-23T01:17:58.930Z,1.20
2022-11-23T01:20:25.359Z,1.27
2022-11-23T01:22:51.732Z,1.13
2022-11-23T01:25:18.133Z,1.23
2022-11-23T01:27:44.776Z,1.42
2022-11-23T01:30:11.158Z,1.20
2022-11-23T01:32:37.583Z,1.30
2022-11-23T01:35:04.085Z,1.50
2022-11-23T01:37:30.621Z,1.45
2022-11-23T01:39:57.146Z,1.45
2022-11-23T01:42:23.593Z,1.50
2022-11-23T01:44:50.076Z,1.48
2022-11-23T01:47:16.577Z,1.65
2022-11-23T01:49:42.982Z,1.35
2022-11-23T01:52:09.448Z,1.50
2022-11-23T01:54:36.158Z,1.55
2022-11-23T01:57:02.559Z,1.60
2022-11-23T01:59:29.226Z,1.77
2022-11-23T02:01:56.298Z,1.23
2022-11-23T02:04:22.809Z,1.25
2022-11-23T02:06:49.204Z,1.35
2022-11-23T02:09:15.815Z,1.40
2022-11-23T02:11:42.470Z,1.35
2022-11-23T02:14:08.921Z,1.30
2022-11-23T02:16:35.373Z,1.40
2022-11-23T02:19:01.785Z,1.23
2022-11-23T02:21:28.221Z,1.50
2022-11-23T02:23:54.649Z,1.55
2022-11-23T02:26:21.129Z,1.20
2022-11-23T02:28:47.558Z,1.23
2022-11-23T02:31:14.115Z,1.42
2022-11-23T02:33:40.689Z,1.13
2022-11-23T02:36:07.209Z,1.65
2022-11-23T02:38:33.674Z,1.40
2022-11-23T02:41:00.131Z,1.45
2022-11-23T02:43:26.642Z,1.15
2022-11-23T02:45:53.119Z,1.30
2022-11-23T02:48:19.692Z,1.50
2022-11-23T02:50:46.101Z,1.17
2022-11-23T02:53:12.557Z,1.05
2022-11-23T02:55:38.992Z,1.27
2022-11-23T02:58:05.648Z,1.40
2022-11-23T03:00:32.206Z,1.30
2022-11-23T03:02:58.692Z,1.50
2022-11-23T03:05:25.239Z,1.30
2022-11-23T03:07:51.713Z,1.38
2022-11-23T03:10:18.242Z,1.15
2022-11-23T03:12:44.739Z,1.40
2022-11-23T03:15:11.139Z,1.40
2022-11-23T03:17:37.592Z,1.48
2022-11-23T03:20:03.976Z,1.25
2022-11-23T03:22:30.499Z,1.00
2022-11-23T03:24:56.943Z,1.50
2022-11-23T03:27:23.336Z,1.25
2022-11-23T03:29:49.755Z,1.30
2022-11-23T03:32:16.176Z,1.30
2022-11-23T03:34:42.568Z,1.10
2022-11-23T03:37:09.115Z,1.42
2022-11-23T03:39:35.590Z,1.30
2022-11-23T03:42:02.029Z,1.00
2022-11-23T03:44:28.431Z,1.10
2022-11-23T03:46:55.037Z,1.40
2022-11-23T03:49:21.460Z,0.90
2022-11-23T03:51:47.825Z,1.20
2022-11-23T03:54:14.618Z,1.20
2022-11-23T03:56:41.017Z,2.08
2022-11-23T03:59:07.601Z,1.10
2022-11-23T04:01:34.122Z,0.90
2022-11-23T04:04:00.580Z,1.13
2022-11-23T04:06:27.017Z,0.98
2022-11-23T04:08:57.426Z,1.40
2022-11-23T04:11:26.920Z,1.20
2022-11-23T04:13:53.375Z,1.38
2022-11-23T04:16:19.813Z,1.20
2022-11-23T04:18:46.248Z,1.40
2022-11-23T04:21:12.704Z,0.82
2022-11-23T04:23:39.185Z,1.10
2022-11-23T04:26:05.598Z,1.10
2022-11-23T04:28:32.093Z,1.38
2022-11-23T04:30:58.795Z,1.00
2022-11-23T04:33:25.217Z,1.30
2022-11-23T04:35:51.675Z,1.02
2022-11-23T04:38:18.118Z,1.52
2022-11-23T04:40:44.545Z,1.20
2022-11-23T04:43:10.977Z,1.20
2022-11-23T04:45:37.470Z,1.10
2022-11-23T04:48:03.940Z,1.17
2022-11-23T04:50:30.428Z,1.33
2022-11-23T04:52:57.002Z,1.40
2022-11-23T04:55:23.489Z,1.17
2022-11-23T04:57:49.976Z,1.10
2022-11-23T05:00:16.422Z,1.00
2022-11-23T05:02:42.848Z,1.33
2022-11-23T05:05:09.258Z,0.90
2022-11-23T05:07:35.769Z,1.25
2022-11-23T05:10:02.233Z,0.85
2022-11-23T05:12:28.625Z,1.52
2022-11-23T05:14:55.040Z,1.00
2022-11-23T05:17:21.513Z,1.20
2022-11-23T05:19:47.959Z,1.00
2022-11-23T05:22:14.389Z,1.20
2022-11-23T05:24:40.876Z,1.00
2022-11-23T05:27:07.311Z,1.25
2022-11-23T05:29:34.057Z,1.33
2022-11-23T05:32:00.680Z,1.08
2022-11-23T05:34:27.066Z,1.08
2022-11-23T05:36:53.568Z,1.40
2022-11-23T05:39:20.428Z,1.10
2022-11-23T05:41:46.947Z,1.10
2022-11-23T05:44:13.506Z,1.17
2022-11-23T05:46:40.063Z,1.15
2022-11-23T05:49:06.614Z,1.00
2022-11-23T05:51:33.078Z,1.02
2022-11-23T05:53:59.601Z,1.10
2022-11-23T05:56:26.164Z,1.55
2022-11-23T05:58:52.638Z,1.13
2022-11-23T06:01:19.049Z,1.27
2022-11-23T06:03:45.576Z,1.20
2022-11-23T06:06:12.014Z,1.05
2022-11-23T06:08:38.663Z,1.10
2022-11-23T06:11:05.132Z,1.23
2022-11-23T06:13:31.618Z,0.88
2022-11-23T06:15:58.141Z,0.85
2022-11-23T06:18:24.570Z,1.20
2022-11-23T06:20:51.175Z,0.90
2022-11-23T06:23:17.633Z,1.00
2022-11-23T06:25:44.072Z,1.00
2022-11-23T06:28:10.460Z,1.10
2022-11-23T06:30:36.888Z,1.20
2022-11-23T06:33:03.364Z,1.42
2022-11-23T06:35:29.982Z,1.20
2022-11-23T06:37:57.560Z,1.20
2022-11-23T06:40:24.112Z,1.30
2022-11-23T06:42:50.583Z,1.10
2022-11-23T06:45:17.026Z,1.67
2022-11-23T06:47:43.453Z,1.00
2022-11-23T06:50:09.891Z,1.00
2022-11-23T06:52:36.315Z,1.25
2022-11-23T06:55:02.767Z,0.90
2022-11-23T06:57:29.150Z,1.15
2022-11-23T06:59:55.570Z,1.45
2022-11-23T07:02:22.104Z,0.80
2022-11-23T07:04:48.496Z,0.75
2022-11-23T07:07:15.017Z,0.60
2022-11-23T07:09:41.460Z,1.13
2022-11-23T07:12:07.907Z,0.70
2022-11-23T07:14:34.330Z,0.82
2022-11-23T07:17:00.742Z,1.13
2022-11-23T07:19:27.174Z,0.93
2022-11-23T07:21:53.582Z,0.93
2022-11-23T07:24:20.310Z,1.20
2022-11-23T07:26:46.936Z,0.95
2022-11-23T07:29:13.425Z,0.85
2022-11-23T07:34:25.183Z,0.95
2022-11-23T07:36:51.571Z,0.93
2022-11-23T07:39:18.015Z,1.25
2022-11-23T07:41:45.001Z,1.08
2022-11-23T07:44:11.618Z,1.10
2022-11-23T07:46:38.005Z,1.50
2022-11-23T07:49:04.401Z,1.63
2022-11-23T07:51:30.809Z,1.40
2022-11-23T07:53:57.202Z,1.48
2022-11-23T07:56:23.582Z,1.50
2022-11-23T07:58:50.040Z,1.13
2022-11-23T08:01:16.440Z,1.02
2022-11-23T08:03:42.886Z,1.10
2022-11-23T08:06:09.357Z,1.13
2022-11-23T08:08:35.784Z,1.02
2022-11-23T08:11:02.169Z,0.80
2022-11-23T08:13:28.613Z,0.90
2022-11-23T08:15:56.141Z,0.90
2022-11-23T08:18:22.628Z,1.45
2022-11-23T08:20:49.052Z,1.67
2022-11-23T08:23:15.425Z,1.48
2022-11-23T08:25:41.813Z,1.38
2022-11-23T08:28:08.238Z,1.20
2022-11-23T08:30:34.643Z,1.30
2022-11-23T08:33:01.066Z,1.50
2022-11-23T08:35:27.457Z,1.60
2022-11-23T08:37:53.872Z,1.25
2022-11-23T08:40:25.056Z,1.27
2022-11-23T08:42:51.899Z,1.23
2022-11-23T08:45:18.302Z,1.00
2022-11-23T08:47:44.693Z,1.05
2022-11-23T08:50:11.079Z,1.00
2022-11-23T08:52:37.490Z,1.00
2022-11-23T08:55:03.967Z,1.20
2022-11-23T08:57:30.362Z,1.10
2022-11-23T08:59:56.817Z,1.15
2022-11-23T09:02:23.212Z,1.10
2022-11-23T09:04:49.710Z,1.25
2022-11-23T09:07:16.245Z,1.10
2022-11-23T09:09:43.639Z,1.10
2022-11-23T09:12:10.049Z,1.25
2022-11-23T09:14:36.421Z,1.10
2022-11-23T09:17:02.812Z,1.10
2022-11-23T09:19:29.232Z,0.80
2022-11-23T09:21:55.621Z,1.10
2022-11-23T09:24:22.141Z,1.02
2022-11-23T09:26:48.643Z,1.50
2022-11-23T09:29:15.151Z,1.48
2022-11-23T09:31:41.539Z,0.90
2022-11-23T09:34:07.940Z,0.73
2022-11-23T09:36:34.357Z,1.45
2022-11-23T09:39:00.741Z,0.98
2022-11-23T09:41:27.145Z,1.30
2022-11-23T09:43:53.573Z,1.02
2022-11-23T09:46:19.951Z,0.70
2022-11-23T09:48:46.362Z,0.90
2022-11-23T09:51:12.771Z,0.82
2022-11-23T09:53:39.164Z,0.70
2022-11-23T09:56:05.575Z,0.90
2022-11-23T09:58:31.968Z,1.17
2022-11-23T10:00:58.357Z,1.60
2022-11-23T10:03:24.754Z,0.90
2022-11-23T10:05:51.161Z,0.90
2022-11-23T10:08:17.562Z,0.68
2022-11-23T10:10:43.968Z,0.77
2022-11-23T10:13:10.353Z,0.55
2022-11-23T10:15:36.759Z,0.80
2022-11-23T10:18:03.186Z,1.15
2022-11-23T10:20:29.648Z,0.82
2022-11-23T10:22:56.055Z,0.88
2022-11-23T10:25:22.441Z,0.50
2022-11-23T10:27:48.906Z,0.70
2022-11-23T10:30:15.291Z,0.60
2022-11-23T10:32:41.799Z,2.35
2022-11-23T10:35:08.169Z,1.00
2022-11-23T10:37:34.580Z,0.93
2022-11-23T10:40:00.980Z,0.50
2022-11-23T10:42:27.431Z,0.60
2022-11-23T10:44:53.826Z,1.27
2022-11-23T10:47:20.202Z,1.20
2022-11-23T10:49:46.656Z,0.88
2022-11-23T10:52:13.039Z,0.57
2022-11-23T10:54:39.435Z,0.60
2022-11-23T10:57:05.848Z,0.60
2022-11-23T10:59:32.243Z,0.70
2022-11-23T11:01:58.689Z,0.68
2022-11-23T11:04:25.581Z,1.20
2022-11-23T11:06:51.979Z,3.92
2022-11-23T11:09:18.411Z,0.98
2022-11-23T11:11:44.826Z,0.60
2022-11-23T11:14:11.236Z,0.63
2022-11-23T11:16:37.669Z,0.60
2022-11-23T11:19:04.054Z,0.70
2022-11-23T11:21:30.462Z,0.50
2022-11-23T11:23:56.869Z,0.60
2022-11-23T11:26:23.267Z,0.93
2022-11-23T11:28:49.637Z,1.00
2022-11-23T11:31:16.041Z,1.15
2022-11-23T11:33:42.447Z,0.50
2022-11-23T11:36:08.842Z,0.50
2022-11-23T11:38:35.275Z,0.93
2022-11-23T11:41:01.681Z,1.17
2022-11-23T11:43:37.645Z,0.70
2022-11-23T11:46:27.901Z,0.88
2022-11-23T11:48:51.946Z,0.90
2022-11-23T11:51:18.418Z,0.77
2022-11-23T11:53:44.848Z,0.70
2022-11-23T11:56:11.276Z,0.77
2022-11-23T11:58:41.764Z,0.93
2022-11-23T12:01:09.468Z,0.77
2022-11-23T12:03:35.863Z,1.10
2022-11-23T12:06:02.298Z,1.20
2022-11-23T12:08:28.681Z,0.75
2022-11-23T12:10:55.063Z,0.68
2022-11-23T12:13:21.479Z,0.93
2022-11-23T12:15:49.963Z,0.43
2022-11-23T12:18:16.893Z,0.50
2022-11-23T12:20:43.286Z,0.73
2022-11-23T12:23:09.724Z,0.77
2022-11-23T12:25:36.111Z,0.90
2022-11-23T12:28:02.526Z,0.40
2022-11-23T12:30:28.908Z,0.60
2022-11-23T12:32:55.295Z,0.52
2022-11-23T12:35:21.766Z,0.45
2022-11-23T12:37:48.142Z,0.80
2022-11-23T12:40:14.567Z,0.75
2022-11-23T12:42:40.963Z,0.70
2022-11-23T12:45:07.341Z,0.57
2022-11-23T12:47:33.718Z,0.80
2022-11-23T12:50:00.130Z,1.08
2022-11-23T12:52:26.558Z,0.70
2022-11-23T12:54:52.959Z,0.60
2022-11-23T12:57:19.385Z,0.60
2022-11-23T12:59:45.780Z,0.55
2022-11-23T13:02:12.191Z,0.40
2022-11-23T13:04:38.677Z,0.60
2022-11-23T13:07:27.741Z,1.48
2022-11-23T13:09:51.464Z,0.77
2022-11-23T13:12:17.895Z,1.10
2022-11-23T13:14:44.293Z,2.28
2022-11-23T13:17:10.738Z,0.70
2022-11-23T13:19:37.247Z,0.80
2022-11-23T13:22:03.625Z,0.77
2022-11-23T13:24:30.441Z,0.70
2022-11-23T13:26:57.175Z,0.65
2022-11-23T13:29:23.590Z,0.30
2022-11-23T13:31:50.013Z,0.70
2022-11-23T13:34:16.732Z,0.55
2022-11-23T13:37:11.692Z,0.50
2022-11-23T13:39:29.917Z,0.47
2022-11-23T13:41:56.651Z,0.43
2022-11-23T13:44:23.055Z,0.50
2022-11-23T13:46:49.547Z,0.75
2022-11-23T13:49:15.983Z,0.65
2022-11-23T13:51:42.411Z,0.70
2022-11-23T13:54:08.812Z,0.70
2022-11-23T13:56:35.205Z,0.68
2022-11-23T13:59:01.620Z,0.45
2022-11-23T14:01:28.141Z,0.80
2022-11-23T14:03:54.563Z,0.65
2022-11-23T14:06:21.024Z,0.90
2022-11-23T14:08:47.425Z,0.45
2022-11-23T14:11:13.906Z,0.50
2022-11-23T14:13:40.314Z,0.65
2022-11-23T14:16:06.857Z,0.57
2022-11-23T14:18:33.324Z,0.73
2022-11-23T14:20:59.762Z,0.80
2022-11-23T14:23:26.181Z,0.70
2022-11-23T14:25:52.616Z,0.60
2022-11-23T14:28:19.012Z,0.60
2022-11-23T14:30:45.627Z,0.50
2022-11-23T14:33:12.413Z,0.50
2022-11-23T14:35:38.818Z,0.55
2022-11-23T14:38:05.485Z,0.60
2022-11-23T14:40:31.973Z,0.65
2022-11-23T14:42:58.396Z,0.82
2022-11-23T14:45:24.946Z,0.90
2022-11-23T14:47:51.397Z,0.90
2022-11-23T14:50:17.877Z,0.68
2022-11-23T14:52:44.515Z,0.90
2022-11-23T14:55:10.951Z,0.77
2022-11-23T14:57:37.537Z,0.98
2022-11-23T15:00:10.210Z,1.10
2022-11-23T15:02:38.219Z,0.90
2022-11-23T15:05:04.782Z,0.95
2022-11-23T15:07:31.294Z,1.30
2022-11-23T15:09:57.797Z,1.20
2022-11-23T15:12:24.205Z,1.38
2022-11-23T15:14:50.603Z,1.13
2022-11-23T15:17:17.139Z,1.02
2022-11-23T15:19:43.619Z,1.35
2022-11-23T15:22:10.081Z,1.13
2022-11-23T15:24:36.672Z,1.48
2022-11-23T15:27:06.488Z,1.50
2022-11-23T15:29:36.431Z,1.20
2022-11-23T15:34:49.517Z,1.23
2022-11-23T15:37:16.005Z,1.30
2022-11-23T15:39:42.443Z,1.55
2022-11-23T15:42:08.888Z,1.67
2022-11-23T15:44:35.411Z,1.60
2022-11-23T15:47:01.813Z,1.67
2022-11-23T15:49:28.247Z,1.48
2022-11-23T15:51:54.660Z,1.80
2022-11-23T15:54:21.264Z,1.55
2022-11-23T15:56:47.702Z,1.73
2022-11-23T15:59:14.124Z,1.65
2022-11-23T16:01:40.623Z,1.77
2022-11-23T16:04:07.109Z,2.05
2022-11-23T16:06:33.523Z,1.80
2022-11-23T16:08:59.971Z,1.98
2022-11-23T16:11:26.423Z,2.50
2022-11-23T16:13:52.844Z,1.92
2022-11-23T16:16:19.324Z,1.73
2022-11-23T16:18:46.289Z,2.00
2022-11-23T16:21:12.733Z,2.08
2022-11-23T16:23:39.168Z,2.00
2022-11-23T16:26:05.657Z,1.73
2022-11-23T16:28:32.099Z,2.03
2022-11-23T16:30:58.682Z,2.00
2022-11-23T16:33:25.148Z,1.80
2022-11-23T16:35:51.545Z,1.67
2022-11-23T16:38:17.981Z,2.78
2022-11-23T16:40:44.469Z,1.90
2022-11-23T16:43:10.861Z,2.08
2022-11-23T16:45:37.376Z,2.08
2022-11-23T16:48:03.879Z,1.85
2022-11-23T16:50:30.334Z,1.83
2022-11-23T16:52:56.742Z,1.92
2022-11-23T16:55:23.159Z,2.42
2022-11-23T16:57:49.551Z,2.03
2022-11-23T17:00:16.006Z,1.73
2022-11-23T17:02:42.479Z,1.70
2022-11-23T17:05:08.969Z,1.98
2022-11-23T17:07:35.493Z,3.60
2022-11-23T17:10:01.953Z,2.15
2022-11-23T17:12:28.361Z,2.35
2022-11-23T17:14:54.803Z,2.95
2022-11-23T17:17:21.246Z,2.55
2022-11-23T17:19:47.714Z,2.28
2022-11-23T17:22:14.129Z,2.30
2022-11-23T17:24:40.596Z,2.78
2022-11-23T17:27:07.003Z,3.22
2022-11-23T17:29:37.771Z,3.20
2022-11-23T17:32:06.852Z,3.25
2022-11-23T17:34:33.264Z,2.88
2022-11-23T17:36:59.770Z,2.70
2022-11-23T17:39:26.200Z,3.47
2022-11-23T17:41:52.639Z,3.40
2022-11-23T17:44:19.063Z,3.03
2022-11-23T17:46:45.480Z,3.58
2022-11-23T17:49:11.899Z,3.00
2022-11-23T17:51:38.313Z,2.92
2022-11-23T17:54:04.745Z,3.20
2022-11-23T17:56:31.160Z,2.70
2022-11-23T17:58:57.686Z,3.35
2022-11-23T18:01:24.320Z,3.45
2022-11-23T18:03:50.913Z,3.00
2022-11-23T18:06:17.420Z,3.65
2022-11-23T18:08:43.856Z,3.28
2022-11-23T18:11:10.333Z,3.40
2022-11-23T18:13:36.765Z,3.05
2022-11-23T18:16:03.285Z,3.58
2022-11-23T18:18:29.768Z,3.85
2022-11-23T18:20:56.206Z,3.25
2022-11-23T18:23:22.754Z,3.70
2022-11-23T18:25:49.225Z,3.42
2022-11-23T18:28:15.660Z,4.07
2022-11-23T18:30:42.274Z,3.67
2022-11-23T18:33:08.759Z,3.38
2022-11-23T18:35:35.153Z,3.30
2022-11-23T18:38:01.654Z,3.78
2022-11-23T18:40:28.133Z,4.10
2022-11-23T18:42:54.630Z,4.43
2022-11-23T18:45:21.045Z,4.93
2022-11-23T18:47:47.467Z,6.18
2022-11-23T18:50:14.032Z,5.20
2022-11-23T18:52:40.462Z,4.60
2022-11-23T18:55:06.963Z,5.10
2022-11-23T18:57:33.413Z,5.22
2022-11-23T18:59:59.819Z,4.22
2022-11-23T19:02:26.481Z,4.88
2022-11-23T19:04:52.915Z,3.88
2022-11-23T19:07:23.682Z,2.83
2022-11-23T19:09:52.923Z,2.25
2022-11-23T19:12:19.318Z,2.50
2022-11-23T19:14:45.735Z,3.10
2022-11-23T19:17:12.132Z,2.92
2022-11-23T19:19:38.533Z,3.10
2022-11-23T19:22:04.982Z,2.70
2022-11-23T19:24:31.406Z,3.10
2022-11-23T19:26:57.819Z,2.90
2022-11-23T19:29:25.043Z,2.65
2022-11-23T19:31:51.513Z,3.75
2022-11-23T19:34:17.972Z,2.63
2022-11-23T19:36:44.355Z,2.70
2022-11-23T19:39:10.744Z,2.97
2022-11-23T19:41:37.253Z,2.05
2022-11-23T19:44:03.684Z,2.15
2022-11-23T19:46:30.304Z,1.73
2022-11-23T19:48:56.887Z,1.92
2022-11-23T19:51:23.278Z,1.70
2022-11-23T19:53:49.689Z,1.80
2022-11-23T19:56:16.157Z,1.70
2022-11-23T19:58:42.576Z,1.60
2022-11-23T20:01:09.052Z,1.55
2022-11-23T20:03:35.538Z,1.30
2022-11-23T20:06:01.930Z,1.20
2022-11-23T20:08:28.340Z,1.75
2022-11-23T20:10:54.723Z,1.20
2022-11-23T20:13:21.128Z,1.60
2022-11-23T20:15:47.571Z,1.88
2022-11-23T20:18:14.008Z,1.50
2022-11-23T20:20:40.388Z,1.30
2022-11-23T20:23:06.789Z,1.10
2022-11-23T20:25:33.178Z,1.15
2022-11-23T20:27:59.573Z,1.38
2022-11-23T20:30:26.024Z,1.20
2022-11-23T20:32:52.410Z,1.50
2022-11-23T20:35:18.817Z,1.20
2022-11-23T20:37:45.204Z,0.90
2022-11-23T20:40:11.595Z,1.02
2022-11-23T20:42:37.982Z,1.20
2022-11-23T20:45:04.383Z,1.23
2022-11-23T20:47:30.809Z,1.17
2022-11-23T20:49:57.285Z,1.08
2022-11-23T20:52:23.693Z,1.48
2022-11-23T20:54:50.087Z,1.02
2022-11-23T20:57:16.478Z,0.80
2022-11-23T20:59:42.998Z,1.05
2022-11-23T21:02:09.476Z,0.80
2022-11-23T21:04:36.222Z,0.73
2022-11-23T21:07:02.780Z,0.75
2022-11-23T21:09:29.193Z,0.70
2022-11-23T21:11:55.600Z,0.90
2022-11-23T21:14:22.027Z,0.90
2022-11-23T21:16:48.457Z,0.70
2022-11-23T21:19:14.851Z,0.60
2022-11-23T21:21:41.246Z,0.80
2022-11-23T21:24:07.725Z,0.60
2022-11-23T21:26:34.112Z,0.60
2022-11-23T21:29:00.499Z,0.65
2022-11-23T21:31:26.974Z,0.80
2022-11-23T21:33:54.225Z,0.77
2022-11-23T21:36:22.041Z,0.68
2022-11-23T21:38:48.432Z,0.70
2022-11-23T21:41:14.826Z,0.60
2022-11-23T21:43:41.234Z,0.70
2022-11-23T21:46:07.640Z,0.60
2022-11-23T21:48:34.047Z,0.75
2022-11-23T21:51:00.441Z,0.82
2022-11-23T21:53:26.836Z,0.70
2022-11-23T21:55:53.215Z,0.70
2022-11-23T21:58:19.655Z,0.70
2022-11-23T22:00:46.056Z,0.70
2022-11-23T22:03:12.449Z,0.90
2022-11-23T22:05:38.826Z,0.60
2022-11-23T22:10:51.642Z,0.65
2022-11-23T22:13:18.047Z,0.60
2022-11-23T22:15:44.476Z,0.95
2022-11-23T22:18:10.954Z,0.60
2022-11-23T22:20:37.339Z,0.50
2022-11-23T22:23:03.741Z,0.57
2022-11-23T22:25:30.125Z,0.70
2022-11-23T22:27:56.512Z,0.63
2022-11-23T22:30:22.901Z,0.60
2022-11-23T22:32:49.278Z,0.70
2022-11-23T22:35:15.679Z,0.50
2022-11-23T22:37:42.083Z,0.70
2022-11-23T22:40:08.464Z,0.68
2022-11-23T22:42:34.873Z,0.80
2022-11-23T22:45:01.255Z,0.68
2022-11-23T22:47:27.641Z,0.82
2022-11-23T22:49:54.020Z,0.90
2022-11-23T22:52:20.408Z,0.80
2022-11-23T22:54:46.786Z,0.73
2022-11-23T22:57:13.200Z,0.85
2022-11-23T22:59:39.602Z,0.90
2022-11-23T23:02:05.996Z,1.33
2022-11-23T23:04:32.699Z,1.30
2022-11-23T23:06:59.312Z,1.20
2022-11-23T23:09:25.767Z,1.00
2022-11-23T23:11:52.146Z,0.77
2022-11-23T23:14:18.542Z,0.95
2022-11-23T23:16:44.951Z,0.80
2022-11-23T23:19:11.359Z,0.73
2022-11-23T23:21:37.785Z,0.93
2022-11-23T23:24:04.197Z,0.95
2022-11-23T23:26:30.587Z,0.90
2022-11-23T23:28:57.011Z,0.90
2022-11-23T23:31:23.524Z,0.80
2022-11-23T23:33:49.923Z,1.05
2022-11-23T23:36:16.319Z,0.98
2022-11-23T23:38:42.713Z,1.00
2022-11-23T23:41:09.095Z,0.80
2022-11-23T23:43:35.605Z,0.90
2022-11-23T23:46:02.071Z,1.35
2022-11-23T23:48:28.491Z,1.05
2022-11-23T23:50:54.894Z,1.60
2022-11-23T23:53:21.284Z,1.08
2022-11-23T23:55:47.655Z,0.60
2022-11-23T23:58:14.117Z,0.80
